• Join FlightAware (Why Join?)
  • Login
  • US Flag 
12:31AM EDT


 

Airport Tracker/Info


-or-


 

Live Flight TrackerFlight Track Log ✈ ASQ6129 ✈ 08-May-2012 ✈ KDTW - KIAD

Flight Track Log - Related Links

Times and Time Zones

All times are in EDT time to prevent confusion due to time zone crossing. See the ASQ6129 flight status page for this flight to view local times or setup timezone preferences in your user account.

Time Position Orientation Groundspeed Altitude Reporting Facility
EDT Latitude Longitude Course Direction KTS MPH feet Rate Location/Type
10:34AM 42.2028 -83.3544 194° South 159 183 1,200  Level FAA TRACON SMA TRACON (SMA)
10:35AM 42.1719 -83.3644 193° South 188 216 2,500 1,680 Climbing FAA TRACON SMA TRACON (SMA)
10:35AM 42.1344 -83.3764 191° South 219 252 3,500 1,620 Climbing FAA TRACON SMA TRACON (SMA)
10:36AM 42.0894 -83.3886 167° South 255 293 4,700 2,160 Climbing FAA TRACON SMA TRACON (SMA)
10:37AM 42.0428 -83.3736 91° East 278 320 6,200 2,040 Climbing Cleveland Center
10:37AM 42.0422 -83.3064 88° East 298 343 7,300 2,040 Climbing Cleveland Center
10:38AM 42.0450 -83.1892 84° East 309 356 9,700 1,320 Climbing Cleveland Center
10:39AM 42.0539 -83.0664 86° East 327 376 10,000 840 Climbing Cleveland Center
10:40AM 42.0611 -82.9297 87° East 350 403 11,400 1,440 Climbing Cleveland Center
10:41AM 42.0658 -82.7956 84° East 355 409 12,900 1,500 Climbing Cleveland Center
10:42AM 42.0767 -82.6533 85° East 372 428 14,400 1,380 Climbing Cleveland Center
10:43AM 42.0853 -82.5306 97° East 372 428 15,700 1,380 Climbing Cleveland Center
10:44AM 42.0728 -82.3903 101° East 367 422 17,200 1,140 Climbing Cleveland Center
10:45AM 42.0519 -82.2497 104° East 376 433 18,000 900 Climbing Cleveland Center
10:46AM 42.0208 -82.0869 138° Southeast 398 458 19,000 960 Climbing Cleveland Center
10:47AM 41.9367 -81.9844 144° Southeast 398 458 20,000 960 Climbing Cleveland Center
10:48AM 41.8442 -81.8958 144° Southeast 408 470 21,000 900 Climbing Cleveland Center
10:49AM 41.7617 -81.8164 145° Southeast 408 470 21,800 900 Climbing Cleveland Center
10:50AM 41.6667 -81.7283 144° Southeast 413 475 22,800 960 Climbing Cleveland Center
10:51AM 41.5717 -81.6378 147° Southeast 418 481 23,800 960 Climbing Cleveland Center
10:52AM 41.4744 -81.5531 145° Southeast 418 481 24,800 1,020 Climbing Cleveland Center
10:53AM 41.3708 -81.4547 146° Southeast 418 481 25,900 960 Climbing Cleveland Center
10:54AM 41.2736 -81.3678 146° Southeast 423 487 26,800 960 Climbing Cleveland Center
10:55AM 41.1783 -81.2811 146° Southeast 418 481 27,900 1,200 Climbing Cleveland Center
10:56AM 41.0889 -81.2003 146° Southeast 412 474 29,300 1,200 Climbing Cleveland Center
10:57AM 40.9978 -81.1197 145° Southeast 401 461 30,400 840 Climbing Cleveland Center
10:58AM 40.9064 -81.0336 147° Southeast 401 461 31,000 300 Climbing Cleveland Center
10:59AM 40.8044 -80.9453 146° Southeast 407 468 31,000  Level Cleveland Center
11:00AM 40.7006 -80.8542 145° Southeast 435 501 31,000  Level Cleveland Center
11:01AM 40.5944 -80.7581 146° Southeast 453 521 31,000  Level Cleveland Center
11:02AM 40.4861 -80.6622 145° Southeast 466 536 31,000  Level Cleveland Center
11:03AM 40.3819 -80.5667 148° Southeast 466 536 31,000  Level Cleveland Center
11:04AM 40.2736 -80.4769 145° Southeast 461 531 31,000  Level Cleveland Center
11:05AM 40.1692 -80.3819 148° Southeast 461 531 31,000 -840 Level Cleveland Center
11:06AM 40.0606 -80.2928 145° Southeast 461 531 29,400 -1,020 Descending Cleveland Center
11:09AM 39.7489 -80.0106 124° Southeast 461 531 27,000 -540 Descending Cleveland Center
11:11AM 39.6031 -79.7314 124° Southeast 483 556 27,000 -360 Level Washington Center
11:15AM 39.3183 -79.1811 104° East 477 549 25,000 -1,740 Descending Washington Center
11:20AM 39.1667 -78.4333 102° East 387 445 12,000 -2,520 Descending Potomac TRACON
11:21AM 39.1500 -78.3333 119° Southeast 347 399 11,000 -900 Descending Potomac TRACON
11:22AM 39.1000 -78.2167 117° Southeast 312 359 10,300 -900 Descending Potomac TRACON
11:23AM 39.0667 -78.1333 117° Southeast 302 348 9,200 -1,440 Descending Potomac TRACON
11:24AM 39.0333 -78.0500 113° Southeast 298 343 7,600 -1,560 Descending Potomac TRACON
11:25AM 39.0000 -77.9500 123° Southeast 282 325 6,100 -840 Descending Potomac TRACON
11:26AM 38.9500 -77.8500 104° East 282 325 6,000 -60 Descending Potomac TRACON
11:27AM 38.9333 -77.7667 90° East 268 308 6,000  Level Potomac TRACON
11:28AM 38.9333 -77.6833 76° East 259 298 6,000  Level Potomac TRACON
11:29AM 38.9500 -77.6000 North 280 322 6,000  Level Potomac TRACON
11:30AM 39.0333 -77.5833 360° North 275 316 6,000  Level Potomac TRACON
11:31AM 39.1000 -77.5833 360° North 271 312 6,000 -300 Level Potomac TRACON
11:32AM 39.1833 -77.5833 27° Northeast 264 304 5,500 -600 Descending Potomac TRACON
11:33AM 39.2333 -77.5500 90° East 283 326 4,800 -780 Descending Potomac TRACON
11:34AM 39.2333 -77.4667 159° South 251 289 4,000 -420 Descending Potomac TRACON
11:35AM 39.2000 -77.4500 180° South 147 169 4,000 -120 Level Potomac TRACON
11:36AM 39.1500 -77.4500 180° South 148 170 3,800 -540 Descending Potomac TRACON
11:37AM 39.1167 -77.4500 180° South 151 174 3,000 -840 Descending Potomac TRACON
11:38AM 39.0667 -77.4500 201° Southwest 159 183 2,200 -840 Descending Potomac TRACON
11:39AM 39.0333 -77.4667 180° South 153 176 1,400 -780 Descending Potomac TRACON
11:40AM 39.0000 -77.4667 180° South 116 133 800 -720 Descending Potomac TRACON